sensor_id;sensor_type;location;lat;lon;timestamp;pressure;altitude;pressure_sealevel;temperature;humidity
11487;BME280;10510;47.942;9.442;2023-04-23T00:01:26;94039.56;;;10.95;100.00
11487;BME280;10510;47.942;9.442;2023-04-23T00:03:27;94036.75;;;10.97;100.00
11487;BME280;10510;47.942;9.442;2023-04-23T00:05:30;94040.38;;;10.96;100.00
11487;BME280;10510;47.942;9.442;2023-04-23T00:07:33;94041.00;;;10.98;100.00
11487;BME280;10510;47.942;9.442;2023-04-23T00:09:34;94040.78;;;10.99;100.00
11487;BME280;10510;47.942;9.442;2023-04-23T00:11:35;94041.78;;;10.98;100.00
11487;BME280;10510;47.942;9.442;2023-04-23T00:13:36;94042.41;;;11.00;100.00
11487;BME280;10510;47.942;9.442;2023-04-23T00:15:36;94045.59;;;11.02;100.00
11487;BME280;10510;47.942;9.442;2023-04-23T00:17:37;94042.97;;;11.02;100.00
11487;BME280;10510;47.942;9.442;2023-04-23T00:19:37;94048.81;;;11.04;100.00
11487;BME280;10510;47.942;9.442;2023-04-23T00:21:37;94048.81;;;11.04;100.00
11487;BME280;10510;47.942;9.442;2023-04-23T00:23:38;94043.38;;;11.06;100.00
11487;BME280;10510;47.942;9.442;2023-04-23T00:25:38;94040.59;;;11.07;100.00
11487;BME280;10510;47.942;9.442;2023-04-23T00:27:39;94038.78;;;11.08;100.00
11487;BME280;10510;47.942;9.442;2023-04-23T00:29:39;94048.25;;;11.09;100.00
11487;BME280;10510;47.942;9.442;2023-04-23T00:31:40;94044.22;;;11.06;100.00
11487;BME280;10510;47.942;9.442;2023-04-23T00:33:40;94041.78;;;11.05;100.00
11487;BME280;10510;47.942;9.442;2023-04-23T00:35:40;94044.81;;;11.02;100.00
11487;BME280;10510;47.942;9.442;2023-04-23T00:37:41;94045.00;;;11.00;100.00
11487;BME280;10510;47.942;9.442;2023-04-23T00:39:41;94046.00;;;10.99;100.00
11487;BME280;10510;47.942;9.442;2023-04-23T00:41:41;94040.78;;;10.99;100.00
11487;BME280;10510;47.942;9.442;2023-04-23T00:43:42;94039.97;;;10.99;100.00
11487;BME280;10510;47.942;9.442;2023-04-23T00:45:43;94041.56;;;11.00;100.00
11487;BME280;10510;47.942;9.442;2023-04-23T00:47:45;94054.84;;;10.98;100.00
11487;BME280;10510;47.942;9.442;2023-04-23T00:49:46;94048.03;;;10.97;100.00
11487;BME280;10510;47.942;9.442;2023-04-23T00:51:47;94054.66;;;10.93;100.00
11487;BME280;10510;47.942;9.442;2023-04-23T00:53:47;94056.84;;;10.89;100.00
11487;BME280;10510;47.942;9.442;2023-04-23T00:55:48;94055.66;;;10.85;100.00
11487;BME280;10510;47.942;9.442;2023-04-23T00:57:49;94052.44;;;10.83;100.00
11487;BME280;10510;47.942;9.442;2023-04-23T00:59:49;94057.03;;;10.81;100.00
11487;BME280;10510;47.942;9.442;2023-04-23T01:01:50;94054.41;;;10.81;100.00
11487;BME280;10510;47.942;9.442;2023-04-23T01:03:52;94063.28;;;10.80;100.00
11487;BME280;10510;47.942;9.442;2023-04-23T01:05:52;94057.03;;;10.81;100.00
11487;BME280;10510;47.942;9.442;2023-04-23T01:07:52;94061.47;;;10.81;100.00
11487;BME280;10510;47.942;9.442;2023-04-23T01:09:54;94050.22;;;10.80;100.00
11487;BME280;10510;47.942;9.442;2023-04-23T01:11:55;94060.44;;;10.82;100.00
11487;BME280;10510;47.942;9.442;2023-04-23T01:13:57;94050.78;;;10.82;100.00
11487;BME280;10510;47.942;9.442;2023-04-23T01:15:58;94052.44;;;10.83;100.00
11487;BME280;10510;47.942;9.442;2023-04-23T01:17:58;94054.03;;;10.84;100.00
11487;BME280;10510;47.942;9.442;2023-04-23T01:19:59;94050.44;;;10.85;100.00
11487;BME280;10510;47.942;9.442;2023-04-23T01:22:00;94055.66;;;10.85;100.00
11487;BME280;10510;47.942;9.442;2023-04-23T01:24:02;94048.81;;;10.84;100.00
11487;BME280;10510;47.942;9.442;2023-04-23T01:26:02;94045.38;;;10.84;100.00
11487;BME280;10510;47.942;9.442;2023-04-23T01:28:04;94043.56;;;10.84;100.00
11487;BME280;10510;47.942;9.442;2023-04-23T01:30:06;94043.56;;;10.84;100.00
11487;BME280;10510;47.942;9.442;2023-04-23T01:32:07;94047.81;;;10.85;100.00
11487;BME280;10510;47.942;9.442;2023-04-23T01:34:08;94054.81;;;10.85;100.00
11487;BME280;10510;47.942;9.442;2023-04-23T01:36:08;94046.41;;;10.83;100.00
11487;BME280;10510;47.942;9.442;2023-04-23T01:38:10;94051.00;;;10.81;100.00
11487;BME280;10510;47.942;9.442;2023-04-23T01:40:10;94054.63;;;10.80;100.00
11487;BME280;10510;47.942;9.442;2023-04-23T01:42:11;94055.63;;;10.79;100.00
11487;BME280;10510;47.942;9.442;2023-04-23T01:44:11;94064.66;;;10.76;100.00
11487;BME280;10510;47.942;9.442;2023-04-23T01:46:12;94063.06;;;10.75;100.00
11487;BME280;10510;47.942;9.442;2023-04-23T01:48:12;94065.88;;;10.74;100.00
11487;BME280;10510;47.942;9.442;2023-04-23T01:50:12;94063.63;;;10.71;100.00
11487;BME280;10510;47.942;9.442;2023-04-23T01:52:13;94069.06;;;10.69;100.00
11487;BME280;10510;47.942;9.442;2023-04-23T01:54:13;94069.66;;;10.64;100.00
11487;BME280;10510;47.942;9.442;2023-04-23T01:56:15;94073.50;;;10.62;100.00
11487;BME280;10510;47.942;9.442;2023-04-23T01:58:15;94074.47;;;10.61;100.00
11487;BME280;10510;47.942;9.442;2023-04-23T02:00:16;94074.69;;;10.59;100.00
11487;BME280;10510;47.942;9.442;2023-04-23T02:02:16;94075.69;;;10.58;100.00
11487;BME280;10510;47.942;9.442;2023-04-23T02:04:17;94078.50;;;10.57;100.00
11487;BME280;10510;47.942;9.442;2023-04-23T02:06:17;94079.47;;;10.56;100.00
11487;BME280;10510;47.942;9.442;2023-04-23T02:08:18;94085.72;;;10.55;100.00
11487;BME280;10510;47.942;9.442;2023-04-23T02:10:18;94082.31;;;10.54;100.00
11487;BME280;10510;47.942;9.442;2023-04-23T02:12:19;94081.50;;;10.54;100.00
11487;BME280;10510;47.942;9.442;2023-04-23T02:14:19;94084.13;;;10.54;100.00
11487;BME280;10510;47.942;9.442;2023-04-23T02:16:20;94083.31;;;10.53;100.00
11487;BME280;10510;47.942;9.442;2023-04-23T02:18:20;94087.53;;;10.54;100.00
11487;BME280;10510;47.942;9.442;2023-04-23T02:20:21;94088.53;;;10.53;100.00
11487;BME280;10510;47.942;9.442;2023-04-23T02:22:21;94087.91;;;10.51;100.00
11487;BME280;10510;47.942;9.442;2023-04-23T02:24:24;94087.13;;;10.51;100.00
11487;BME280;10510;47.942;9.442;2023-04-23T02:26:24;94087.31;;;10.49;100.00
11487;BME280;10510;47.942;9.442;2023-04-23T02:28:24;94088.31;;;10.48;100.00
11487;BME280;10510;47.942;9.442;2023-04-23T02:30:25;94085.88;;;10.46;100.00
11487;BME280;10510;47.942;9.442;2023-04-23T02:32:25;94096.53;;;10.45;100.00
11487;BME280;10510;47.942;9.442;2023-04-23T02:34:27;94093.31;;;10.43;100.00
11487;BME280;10510;47.942;9.442;2023-04-23T02:36:27;94097.91;;;10.41;100.00
11487;BME280;10510;47.942;9.442;2023-04-23T02:38:30;94100.13;;;10.37;100.00
11487;BME280;10510;47.942;9.442;2023-04-23T02:40:30;94097.91;;;10.34;100.00
11487;BME280;10510;47.942;9.442;2023-04-23T02:42:30;94100.91;;;10.31;100.00
11487;BME280;10510;47.942;9.442;2023-04-23T02:44:31;94103.09;;;10.28;100.00
11487;BME280;10510;47.942;9.442;2023-04-23T02:46:31;94099.25;;;10.23;100.00
11487;BME280;10510;47.942;9.442;2023-04-23T02:48:36;94105.44;;;10.22;100.00
11487;BME280;10510;47.942;9.442;2023-04-23T02:50:36;94102.03;;;10.22;100.00
11487;BME280;10510;47.942;9.442;2023-04-23T02:52:38;94104.81;;;10.20;100.00
11487;BME280;10510;47.942;9.442;2023-04-23T02:54:38;94102.00;;;10.15;100.00
11487;BME280;10510;47.942;9.442;2023-04-23T02:56:38;94112.84;;;10.12;100.00
11487;BME280;10510;47.942;9.442;2023-04-23T02:58:39;94110.63;;;10.09;100.00
11487;BME280;10510;47.942;9.442;2023-04-23T03:00:40;94115.84;;;10.09;100.00
11487;BME280;10510;47.942;9.442;2023-04-23T03:02:40;94111.81;;;10.07;100.00
11487;BME280;10510;47.942;9.442;2023-04-23T03:04:40;94109.19;;;10.07;100.00
11487;BME280;10510;47.942;9.442;2023-04-23T03:06:41;94108.78;;;10.03;100.00
11487;BME280;10510;47.942;9.442;2023-04-23T03:08:41;94118.38;;;10.02;100.00
11487;BME280;10510;47.942;9.442;2023-04-23T03:10:42;94109.97;;;10.00;100.00
11487;BME280;10510;47.942;9.442;2023-04-23T03:12:42;94111.78;;;10.00;100.00
11487;BME280;10510;47.942;9.442;2023-04-23T03:14:42;94111.16;;;9.98;100.00
11487;BME280;10510;47.942;9.442;2023-04-23T03:16:43;94113.75;;;9.98;100.00
11487;BME280;10510;47.942;9.442;2023-04-23T03:18:43;94112.13;;;9.97;100.00
11487;BME280;10510;47.942;9.442;2023-04-23T03:20:43;94119.16;;;9.96;100.00
11487;BME280;10510;47.942;9.442;2023-04-23T03:22:44;94108.31;;;9.93;100.00
11487;BME280;10510;47.942;9.442;2023-04-23T03:24:45;94106.88;;;9.90;100.00
11487;BME280;10510;47.942;9.442;2023-04-23T03:26:45;94101.06;;;9.88;100.00
11487;BME280;10510;47.942;9.442;2023-04-23T03:28:45;94098.63;;;9.87;100.00
11487;BME280;10510;47.942;9.442;2023-04-23T03:30:45;94090.97;;;9.85;100.00
11487;BME280;10510;47.942;9.442;2023-04-23T03:32:47;94093.59;;;9.85;100.00
11487;BME280;10510;47.942;9.442;2023-04-23T03:34:47;94097.03;;;9.86;100.00
11487;BME280;10510;47.942;9.442;2023-04-23T03:36:47;94101.41;;;9.85;100.00
11487;BME280;10510;47.942;9.442;2023-04-23T03:38:48;94103.44;;;9.83;100.00
11487;BME280;10510;47.942;9.442;2023-04-23T03:40:49;94098.59;;;9.80;100.00
11487;BME280;10510;47.942;9.442;2023-04-23T03:42:49;94100.59;;;9.78;100.00
11487;BME280;10510;47.942;9.442;2023-04-23T03:44:49;94100.34;;;9.73;100.00
11487;BME280;10510;47.942;9.442;2023-04-23T03:46:49;94100.72;;;9.70;100.00
11487;BME280;10510;47.942;9.442;2023-04-23T03:48:51;94106.16;;;9.68;100.00
11487;BME280;10510;47.942;9.442;2023-04-23T03:50:51;94102.13;;;9.66;100.00
11487;BME280;10510;47.942;9.442;2023-04-23T03:52:51;94097.28;;;9.63;100.00
11487;BME280;10510;47.942;9.442;2023-04-23T03:54:52;94100.25;;;9.60;100.00
11487;BME280;10510;47.942;9.442;2023-04-23T03:56:52;94090.81;;;9.59;100.00
11487;BME280;10510;47.942;9.442;2023-04-23T03:58:53;94090.00;;;9.58;100.00
11487;BME280;10510;47.942;9.442;2023-04-23T04:00:53;94090.00;;;9.58;100.00
11487;BME280;10510;47.942;9.442;2023-04-23T04:02:54;94091.81;;;9.58;100.00
11487;BME280;10510;47.942;9.442;2023-04-23T04:04:54;94093.41;;;9.59;100.00
11487;BME280;10510;47.942;9.442;2023-04-23T04:06:56;94101.25;;;9.59;100.00
11487;BME280;10510;47.942;9.442;2023-04-23T04:08:56;94089.22;;;9.58;100.00
11487;BME280;10510;47.942;9.442;2023-04-23T04:10:57;94093.78;;;9.55;100.00
11487;BME280;10510;47.942;9.442;2023-04-23T04:12:57;94094.19;;;9.52;100.00
11487;BME280;10510;47.942;9.442;2023-04-23T04:14:57;94091.78;;;9.51;100.00
11487;BME280;10510;47.942;9.442;2023-04-23T04:16:58;94095.56;;;9.48;100.00
11487;BME280;10510;47.942;9.442;2023-04-23T04:18:58;94100.16;;;9.46;100.00
11487;BME280;10510;47.942;9.442;2023-04-23T04:20:59;94096.13;;;9.44;100.00
11487;BME280;10510;47.942;9.442;2023-04-23T04:22:59;94097.94;;;9.43;100.00
11487;BME280;10510;47.942;9.442;2023-04-23T04:24:59;94093.50;;;9.44;100.00
11487;BME280;10510;47.942;9.442;2023-04-23T04:27:00;94088.50;;;9.42;100.00
11487;BME280;10510;47.942;9.442;2023-04-23T04:29:01;94091.91;;;9.43;100.00
11487;BME280;10510;47.942;9.442;2023-04-23T04:31:04;94098.72;;;9.44;100.00
11487;BME280;10510;47.942;9.442;2023-04-23T04:33:05;94089.94;;;9.45;100.00
11487;BME280;10510;47.942;9.442;2023-04-23T04:35:06;94096.75;;;9.46;100.00
11487;BME280;10510;47.942;9.442;2023-04-23T04:37:08;94089.72;;;9.46;100.00
11487;BME280;10510;47.942;9.442;2023-04-23T04:39:10;94101.16;;;9.45;100.00
11487;BME280;10510;47.942;9.442;2023-04-23T04:41:12;94095.16;;;9.45;100.00
11487;BME280;10510;47.942;9.442;2023-04-23T04:43:12;94096.94;;;9.44;100.00
11487;BME280;10510;47.942;9.442;2023-04-23T04:45:13;94096.13;;;9.44;100.00
11487;BME280;10510;47.942;9.442;2023-04-23T04:47:13;94090.91;;;9.44;100.00
11487;BME280;10510;47.942;9.442;2023-04-23T04:49:15;94091.53;;;9.46;100.00
11487;BME280;10510;47.942;9.442;2023-04-23T04:51:18;94090.53;;;9.47;100.00
11487;BME280;10510;47.942;9.442;2023-04-23T04:53:19;94096.13;;;9.44;100.00
11487;BME280;10510;47.942;9.442;2023-04-23T04:55:19;94092.13;;;9.41;100.00
11487;BME280;10510;47.942;9.442;2023-04-23T04:57:20;94096.31;;;9.42;100.00
11487;BME280;10510;47.942;9.442;2023-04-23T04:59:21;94098.94;;;9.42;100.00
11487;BME280;10510;47.942;9.442;2023-04-23T05:01:22;94094.72;;;9.41;100.00
11487;BME280;10510;47.942;9.442;2023-04-23T05:03:24;94094.09;;;9.39;100.00
11487;BME280;10510;47.942;9.442;2023-04-23T05:05:26;94105.31;;;9.40;100.00
11487;BME280;10510;47.942;9.442;2023-04-23T05:07:26;94102.72;;;9.40;100.00
11487;BME280;10510;47.942;9.442;2023-04-23T05:09:26;94104.53;;;9.39;100.00
11487;BME280;10510;47.942;9.442;2023-04-23T05:11:26;94100.28;;;9.38;100.00
11487;BME280;10510;47.942;9.442;2023-04-23T05:13:27;94101.91;;;9.39;100.00
11487;BME280;10510;47.942;9.442;2023-04-23T05:15:27;94096.69;;;9.39;100.00
11487;BME280;10510;47.942;9.442;2023-04-23T05:17:27;94100.28;;;9.38;100.00
11487;BME280;10510;47.942;9.442;2023-04-23T05:19:28;94099.31;;;9.39;100.00
11487;BME280;10510;47.942;9.442;2023-04-23T05:21:29;94097.50;;;9.40;100.00
11487;BME280;10510;47.942;9.442;2023-04-23T05:23:30;94095.69;;;9.40;100.00
11487;BME280;10510;47.942;9.442;2023-04-23T05:25:31;94094.09;;;9.39;100.00
11487;BME280;10510;47.942;9.442;2023-04-23T05:27:31;94093.88;;;9.41;100.00
11487;BME280;10510;47.942;9.442;2023-04-23T05:29:31;94096.31;;;9.42;100.00
11487;BME280;10510;47.942;9.442;2023-04-23T05:31:32;94097.13;;;9.43;100.00
11487;BME280;10510;47.942;9.442;2023-04-23T05:33:32;94097.31;;;9.41;100.00
11487;BME280;10510;47.942;9.442;2023-04-23T05:35:32;94099.72;;;9.43;100.00
11487;BME280;10510;47.942;9.442;2023-04-23T05:37:33;94099.09;;;9.41;100.00
11487;BME280;10510;47.942;9.442;2023-04-23T05:39:33;94101.91;;;9.39;100.00
11487;BME280;10510;47.942;9.442;2023-04-23T05:41:33;94101.91;;;9.39;100.00
11487;BME280;10510;47.942;9.442;2023-04-23T05:43:34;94093.66;;;9.36;100.00
11487;BME280;10510;47.942;9.442;2023-04-23T05:45:34;94097.06;;;9.36;100.00
11487;BME280;10510;47.942;9.442;2023-04-23T05:47:34;94095.91;;;9.39;100.00
11487;BME280;10510;47.942;9.442;2023-04-23T05:49:35;94093.28;;;9.39;100.00
11487;BME280;10510;47.942;9.442;2023-04-23T05:51:35;94094.72;;;9.41;100.00
11487;BME280;10510;47.942;9.442;2023-04-23T05:53:36;94097.94;;;9.43;100.00
11487;BME280;10510;47.942;9.442;2023-04-23T05:55:36;94095.16;;;9.45;100.00
11487;BME280;10510;47.942;9.442;2023-04-23T05:57:37;94100.34;;;9.45;100.00
11487;BME280;10510;47.942;9.442;2023-04-23T05:59:38;94108.59;;;9.48;100.00
11487;BME280;10510;47.942;9.442;2023-04-23T06:01:38;94099.59;;;9.51;100.00
11487;BME280;10510;47.942;9.442;2023-04-23T06:03:39;94106.41;;;9.52;100.00
11487;BME280;10510;47.942;9.442;2023-04-23T06:05:44;94108.84;;;9.53;100.00
11487;BME280;10510;47.942;9.442;2023-04-23T06:07:44;94110.47;;;9.54;100.00
11487;BME280;10510;47.942;9.442;2023-04-23T06:09:44;94103.25;;;9.57;100.00
11487;BME280;10510;47.942;9.442;2023-04-23T06:11:45;94110.06;;;9.58;100.00
11487;BME280;10510;47.942;9.442;2023-04-23T06:13:45;94108.50;;;9.63;100.00
11487;BME280;10510;47.942;9.442;2023-04-23T06:15:46;94114.53;;;9.64;100.00
11487;BME280;10510;47.942;9.442;2023-04-23T06:17:46;94104.72;;;9.66;100.00
11487;BME280;10510;47.942;9.442;2023-04-23T06:19:46;94101.72;;;9.69;100.00
11487;BME280;10510;47.942;9.442;2023-04-23T06:21:46;94100.53;;;9.71;100.00
11487;BME280;10510;47.942;9.442;2023-04-23T06:23:47;94106.97;;;9.75;100.00
11487;BME280;10510;47.942;9.442;2023-04-23T06:25:47;94103.81;;;9.80;100.00
11487;BME280;10510;47.942;9.442;2023-04-23T06:27:47;94093.78;;;9.84;100.00
11487;BME280;10510;47.942;9.442;2023-04-23T06:29:48;94096.19;;;9.85;100.00
11487;BME280;10510;47.942;9.442;2023-04-23T06:31:48;94089.78;;;9.88;100.00
11487;BME280;10510;47.942;9.442;2023-04-23T06:33:48;94096.25;;;9.92;100.00
11487;BME280;10510;47.942;9.442;2023-04-23T06:35:48;94100.28;;;9.94;100.00
11487;BME280;10510;47.942;9.442;2023-04-23T06:37:49;94098.47;;;9.95;100.00
11487;BME280;10510;47.942;9.442;2023-04-23T06:39:49;94099.66;;;9.92;100.00
11487;BME280;10510;47.942;9.442;2023-04-23T06:41:49;94101.25;;;9.87;100.00
11487;BME280;10510;47.942;9.442;2023-04-23T06:43:50;94102.84;;;9.88;100.00
11487;BME280;10510;47.942;9.442;2023-04-23T06:45:50;94103.69;;;9.88;100.00
11487;BME280;10510;47.942;9.442;2023-04-23T06:47:50;94102.28;;;9.92;100.00
11487;BME280;10510;47.942;9.442;2023-04-23T06:49:50;94096.69;;;9.95;100.00
11487;BME280;10510;47.942;9.442;2023-04-23T06:51:51;94098.72;;;10.00;100.00
11487;BME280;10510;47.942;9.442;2023-04-23T06:53:51;94097.50;;;10.02;100.00
11487;BME280;10510;47.942;9.442;2023-04-23T06:55:51;94095.53;;;10.05;100.00
11487;BME280;10510;47.942;9.442;2023-04-23T06:57:52;94089.91;;;10.08;100.00
11487;BME280;10510;47.942;9.442;2023-04-23T06:59:52;94088.91;;;10.09;100.00
11487;BME280;10510;47.942;9.442;2023-04-23T07:01:52;94086.72;;;10.12;100.00
11487;BME280;10510;47.942;9.442;2023-04-23T07:03:52;94082.09;;;10.14;100.00
11487;BME280;10510;47.942;9.442;2023-04-23T07:05:53;94081.31;;;10.14;100.00
11487;BME280;10510;47.942;9.442;2023-04-23T07:07:54;94093.38;;;10.15;100.00
11487;BME280;10510;47.942;9.442;2023-04-23T07:09:54;94086.72;;;10.12;100.00
11487;BME280;10510;47.942;9.442;2023-04-23T07:11:54;94078.91;;;10.12;100.00
11487;BME280;10510;47.942;9.442;2023-04-23T07:13:54;94075.50;;;10.18;100.00
11487;BME280;10510;47.942;9.442;2023-04-23T07:15:55;94070.69;;;10.22;100.00
11487;BME280;10510;47.942;9.442;2023-04-23T07:17:55;94068.13;;;10.29;100.00
11487;BME280;10510;47.942;9.442;2023-04-23T07:19:55;94067.97;;;10.30;100.00
11487;BME280;10510;47.942;9.442;2023-04-23T07:21:56;94071.56;;;10.29;100.00
11487;BME280;10510;47.942;9.442;2023-04-23T07:23:56;94066.94;;;10.31;100.00
11487;BME280;10510;47.942;9.442;2023-04-23T07:25:58;94061.72;;;10.31;100.00
11487;BME280;10510;47.942;9.442;2023-04-23T07:27:59;94060.72;;;10.32;100.00
11487;BME280;10510;47.942;9.442;2023-04-23T07:29:59;94043.06;;;10.41;100.00
11487;BME280;10510;47.942;9.442;2023-04-23T07:32:01;94055.97;;;10.56;100.00
11487;BME280;10510;47.942;9.442;2023-04-23T07:34:01;94051.75;;;10.61;100.00
11487;BME280;10510;47.942;9.442;2023-04-23T07:36:02;94064.25;;;10.66;100.00
11487;BME280;10510;47.942;9.442;2023-04-23T07:38:02;94060.44;;;10.68;100.00
11487;BME280;10510;47.942;9.442;2023-04-23T07:40:04;94058.63;;;10.76;100.00
11487;BME280;10510;47.942;9.442;2023-04-23T07:42:04;94053.63;;;10.74;100.00
11487;BME280;10510;47.942;9.442;2023-04-23T07:44:05;94061.25;;;10.76;100.00
11487;BME280;10510;47.942;9.442;2023-04-23T07:46:06;94057.44;;;10.78;100.00
11487;BME280;10510;47.942;9.442;2023-04-23T07:48:07;94054.03;;;10.84;100.00
11487;BME280;10510;47.942;9.442;2023-04-23T07:50:07;94051.63;;;10.89;100.00
11487;BME280;10510;47.942;9.442;2023-04-23T07:52:08;94047.59;;;10.94;100.00
11487;BME280;10510;47.942;9.442;2023-04-23T07:54:08;94045.59;;;11.02;100.00
11487;BME280;10510;47.942;9.442;2023-04-23T07:56:08;94042.59;;;11.12;100.00
11487;BME280;10510;47.942;9.442;2023-04-23T07:58:09;94059.28;;;11.11;100.00
11487;BME280;10510;47.942;9.442;2023-04-23T08:00:10;94056.66;;;11.11;100.00
11487;BME280;10510;47.942;9.442;2023-04-23T08:02:10;94054.06;;;11.11;100.00
11487;BME280;10510;47.942;9.442;2023-04-23T08:04:11;94055.28;;;11.15;100.00
11487;BME280;10510;47.942;9.442;2023-04-23T08:06:11;94042.00;;;11.17;100.00
11487;BME280;10510;47.942;9.442;2023-04-23T08:08:11;94043.81;;;11.16;100.00
11487;BME280;10510;47.942;9.442;2023-04-23T08:10:12;94043.59;;;11.18;100.00
11487;BME280;10510;47.942;9.442;2023-04-23T08:12:12;94029.91;;;11.22;100.00
11487;BME280;10510;47.942;9.442;2023-04-23T08:14:13;94032.94;;;11.26;100.00
11487;BME280;10510;47.942;9.442;2023-04-23T08:16:13;94028.72;;;11.31;100.00
11487;BME280;10510;47.942;9.442;2023-04-23T08:18:14;94033.53;;;11.34;100.00
11487;BME280;10510;47.942;9.442;2023-04-23T08:20:14;94034.16;;;11.30;100.00
11487;BME280;10510;47.942;9.442;2023-04-23T08:22:15;94035.16;;;11.29;100.00
11487;BME280;10510;47.942;9.442;2023-04-23T08:24:16;94028.09;;;11.29;100.00
11487;BME280;10510;47.942;9.442;2023-04-23T08:26:16;94029.94;;;11.35;100.00
11487;BME280;10510;47.942;9.442;2023-04-23T08:28:17;94032.72;;;11.41;100.00
11487;BME280;10510;47.942;9.442;2023-04-23T08:30:17;94030.53;;;11.44;100.00
11487;BME280;10510;47.942;9.442;2023-04-23T08:32:18;94024.66;;;11.49;100.00
11487;BME280;10510;47.942;9.442;2023-04-23T08:34:18;94032.91;;;11.52;100.00
11487;BME280;10510;47.942;9.442;2023-04-23T08:36:18;94033.34;;;11.56;100.00
11487;BME280;10510;47.942;9.442;2023-04-23T08:38:18;94031.88;;;11.67;100.00
11487;BME280;10510;47.942;9.442;2023-04-23T08:40:19;94028.66;;;11.78;100.00
11487;BME280;10510;47.942;9.442;2023-04-23T08:44:42;94027.22;;;11.82;100.00
11487;BME280;10510;47.942;9.442;2023-04-23T08:46:45;94033.88;;;11.85;100.00
11487;BME280;10510;47.942;9.442;2023-04-23T08:48:46;94026.44;;;11.95;100.00
11487;BME280;10510;47.942;9.442;2023-04-23T08:50:47;94028.00;;;12.09;100.00
11487;BME280;10510;47.942;9.442;2023-04-23T08:52:57;94026.91;;;12.30;100.00
11487;BME280;10510;47.942;9.442;2023-04-23T08:54:59;94018.59;;;12.40;100.00
11487;BME280;10510;47.942;9.442;2023-04-23T08:57:00;94015.50;;;12.56;100.00
11487;BME280;10510;47.942;9.442;2023-04-23T08:59:01;94019.41;;;12.72;100.00
11487;BME280;10510;47.942;9.442;2023-04-23T09:01:03;94016.69;;;12.92;100.00
11487;BME280;10510;47.942;9.442;2023-04-23T09:03:04;94020.09;;;13.17;100.00
11487;BME280;10510;47.942;9.442;2023-04-23T09:05:05;94016.56;;;13.37;100.00
11487;BME280;10510;47.942;9.442;2023-04-23T09:07:05;94014.91;;;13.43;100.00
11487;BME280;10510;47.942;9.442;2023-04-23T09:09:12;94014.44;;;13.71;100.00
11487;BME280;10510;47.942;9.442;2023-04-23T09:11:14;94004.38;;;14.04;100.00
11487;BME280;10510;47.942;9.442;2023-04-23T09:13:16;94001.34;;;14.38;100.00
11487;BME280;10510;47.942;9.442;2023-04-23T09:15:16;93999.66;;;14.43;100.00
11487;BME280;10510;47.942;9.442;2023-04-23T09:17:17;93995.59;;;14.29;100.00
11487;BME280;10510;47.942;9.442;2023-04-23T09:19:18;93989.56;;;14.10;100.00
11487;BME280;10510;47.942;9.442;2023-04-23T09:21:19;93992.19;;;14.10;100.00
11487;BME280;10510;47.942;9.442;2023-04-23T09:23:20;93982.38;;;14.17;100.00
11487;BME280;10510;47.942;9.442;2023-04-23T09:25:22;93982.00;;;14.32;100.00
11487;BME280;10510;47.942;9.442;2023-04-23T09:27:23;93984.28;;;14.28;100.00
11487;BME280;10510;47.942;9.442;2023-04-23T09:29:25;93981.50;;;14.23;100.00
11487;BME280;10510;47.942;9.442;2023-04-23T09:31:26;93981.00;;;14.33;100.00
11487;BME280;10510;47.942;9.442;2023-04-23T09:33:27;93985.13;;;14.59;100.00
11487;BME280;10510;47.942;9.442;2023-04-23T09:35:27;93979.91;;;14.71;100.00
11487;BME280;10510;47.942;9.442;2023-04-23T09:37:27;93967.94;;;14.87;100.00
11487;BME280;10510;47.942;9.442;2023-04-23T09:39:28;93968.19;;;15.09;100.00
11487;BME280;10510;47.942;9.442;2023-04-23T09:41:28;93971.56;;;15.39;100.00
11487;BME280;10510;47.942;9.442;2023-04-23T09:43:30;93966.44;;;15.68;100.00
11487;BME280;10510;47.942;9.442;2023-04-23T09:45:30;93969.00;;;16.03;100.00
11487;BME280;10510;47.942;9.442;2023-04-23T09:47:39;93955.56;;;16.17;100.00
11487;BME280;10510;47.942;9.442;2023-04-23T09:49:46;93960.63;;;16.35;100.00
11487;BME280;10510;47.942;9.442;2023-04-23T09:51:48;93957.78;;;16.37;100.00
11487;BME280;10510;47.942;9.442;2023-04-23T09:53:48;93960.84;;;16.74;100.00
11487;BME280;10510;47.942;9.442;2023-04-23T09:55:51;93959.84;;;16.92;100.00
11487;BME280;10510;47.942;9.442;2023-04-23T09:57:51;93953.44;;;17.05;100.00
11487;BME280;10510;47.942;9.442;2023-04-23T09:59:55;93949.53;;;17.07;100.00
11487;BME280;10510;47.942;9.442;2023-04-23T10:01:56;93947.59;;;17.02;100.00
11487;BME280;10510;47.942;9.442;2023-04-23T10:04:00;93957.69;;;16.89;100.00
11487;BME280;10510;47.942;9.442;2023-04-23T10:06:00;93941.69;;;16.95;100.00
11487;BME280;10510;47.942;9.442;2023-04-23T10:08:01;93948.25;;;17.10;100.00
11487;BME280;10510;47.942;9.442;2023-04-23T10:10:03;93946.03;;;17.18;100.00
11487;BME280;10510;47.942;9.442;2023-04-23T10:12:04;93945.38;;;17.28;100.00
11487;BME280;10510;47.942;9.442;2023-04-23T10:14:06;93933.63;;;17.36;100.00
11487;BME280;10510;47.942;9.442;2023-04-23T10:16:07;93932.88;;;17.40;100.00
11487;BME280;10510;47.942;9.442;2023-04-23T10:18:08;93936.06;;;17.42;100.00
11487;BME280;10510;47.942;9.442;2023-04-23T10:20:09;93934.88;;;17.50;100.00
11487;BME280;10510;47.942;9.442;2023-04-23T10:22:13;93923.34;;;17.95;100.00
11487;BME280;10510;47.942;9.442;2023-04-23T10:24:16;93927.28;;;17.92;100.00
11487;BME280;10510;47.942;9.442;2023-04-23T10:26:21;93932.50;;;17.70;100.00
11487;BME280;10510;47.942;9.442;2023-04-23T10:28:25;93924.19;;;18.01;100.00
11487;BME280;10510;47.942;9.442;2023-04-23T10:30:31;93923.81;;;18.14;100.00
11487;BME280;10510;47.942;9.442;2023-04-23T10:32:36;93919.31;;;18.36;100.00
11487;BME280;10510;47.942;9.442;2023-04-23T10:34:40;93912.66;;;18.61;100.00
11487;BME280;10510;47.942;9.442;2023-04-23T10:36:41;93917.50;;;18.69;100.00